createdAt,value
2023-02-11T00:22:07.330Z,99822.56
2023-02-11T00:52:11.211Z,99813.72
2023-02-11T01:22:15.232Z,99814.44
2023-02-11T01:52:23.431Z,99786.00
2023-02-11T02:22:43.396Z,99794.69
2023-02-11T02:52:59.546Z,99758.94
2023-02-11T03:23:09.388Z,99756.28
2023-02-11T03:53:14.334Z,99697.25
2023-02-11T04:23:18.438Z,99725.78
2023-02-11T04:53:22.916Z,99683.00
2023-02-11T05:23:27.030Z,99699.38
2023-02-11T05:53:31.371Z,99708.25
2023-02-11T06:23:35.438Z,99714.00
2023-02-11T06:53:42.450Z,99688.03
2023-02-11T07:23:46.797Z,99706.19
2023-02-11T07:53:52.207Z,99757.97
2023-02-11T08:23:57.578Z,99752.44
2023-02-11T08:54:02.495Z,99763.09
2023-02-11T09:24:09.322Z,99794.44
2023-02-11T09:54:18.260Z,99822.09
2023-02-11T10:24:22.848Z,99854.56
2023-02-11T10:54:26.905Z,99830.44
2023-02-11T11:24:34.524Z,99821.91
2023-02-11T11:54:39.574Z,99814.16
2023-02-11T12:24:53.145Z,99822.19
2023-02-11T12:55:00.536Z,99820.00
2023-02-11T13:25:11.561Z,99799.31
2023-02-11T13:55:24.111Z,99777.91
2023-02-11T14:25:28.649Z,99805.97
2023-02-11T14:55:35.099Z,99797.53
2023-02-11T15:25:51.307Z,99820.78
2023-02-11T15:56:02.541Z,99842.34
2023-02-11T16:26:09.411Z,99870.81
2023-02-11T16:56:16.912Z,99888.88
2023-02-11T17:26:21.193Z,99919.97
2023-02-11T17:56:26.041Z,99942.91
2023-02-11T18:26:30.152Z,99957.53
2023-02-11T18:56:34.209Z,99957.50
2023-02-11T19:26:38.976Z,99944.44
2023-02-11T19:56:44.761Z,99970.91
2023-02-11T20:26:49.497Z,99998.91
2023-02-11T20:56:55.487Z,100009.16
2023-02-11T21:27:00.104Z,100012.22
2023-02-11T21:57:05.044Z,100029.47
2023-02-11T22:27:09.238Z,100050.59
2023-02-11T22:57:13.307Z,100057.66
2023-02-11T23:27:17.443Z,100082.66
2023-02-11T23:57:21.437Z,100066.31
